Time;durP1;ratioP1;P1;durP2;ratioP2;P2;SDS_P1;SDS_P2;PMS_P1;PMS_P2;Temp;Humidity;BMP_temperature;BMP_pressure;BME280_temperature;BME280_humidity;BME280_pressure;Samples;Min_cycle;Max_cycle;Signal;HPM_P1;HPM_P2
2021/05/16 00:00:26;;;;;;;4.40;4.10;;;14.50;98.00;;;;;;5036311;28;20174;-85
2021/05/16 00:02:53;;;;;;;7.10;3.90;;;14.50;98.00;;;;;;5052547;28;20492;-86
2021/05/16 00:05:26;;;;;;;8.10;4.30;;;14.50;97.70;;;;;;5053458;28;20404;-85
2021/05/16 00:07:52;;;;;;;5.40;4.57;;;14.50;97.80;;;;;;5052815;28;20459;-85
2021/05/16 00:10:20;;;;;;;4.70;4.30;;;14.50;97.70;;;;;;5053253;28;20480;-85
2021/05/16 00:12:47;;;;;;;4.93;4.53;;;14.50;97.90;;;;;;5034733;28;20942;-85
2021/05/16 00:15:16;;;;;;;4.40;4.10;;;14.40;98.00;;;;;;5053222;28;20422;-85
2021/05/16 00:17:42;;;;;;;5.93;4.40;;;14.40;97.80;;;;;;5052480;28;20489;-85
2021/05/16 00:20:12;;;;;;;5.00;4.53;;;14.40;97.70;;;;;;5053134;28;20784;-85
2021/05/16 00:22:38;;;;;;;4.90;3.90;;;14.40;97.80;;;;;;5034669;28;20418;-85
2021/05/16 00:25:11;;;;;;;4.50;4.10;;;14.30;97.80;;;;;;5052963;28;20958;-85
2021/05/16 00:27:38;;;;;;;7.03;4.50;;;14.30;98.10;;;;;;5034528;28;20473;-85
2021/05/16 00:30:07;;;;;;;4.97;4.50;;;14.30;97.90;;;;;;5052886;28;20419;-86
2021/05/16 00:32:34;;;;;;;3.80;3.50;;;14.30;97.90;;;;;;5034642;28;20524;-86
2021/05/16 00:34:59;;;;;;;10.07;5.07;;;14.40;98.30;;;;;;5052626;28;20413;-86
2021/05/16 00:37:25;;;;;;;6.90;4.67;;;14.30;98.10;;;;;;5052903;28;20774;-86
2021/05/16 00:39:51;;;;;;;10.83;5.30;;;14.30;98.00;;;;;;5052273;28;20412;-85
2021/05/16 00:42:16;;;;;;;5.87;4.10;;;14.30;98.10;;;;;;5034926;28;20191;-85
2021/05/16 00:45:01;;;;;;;6.83;4.17;;;14.20;97.90;;;;;;5052003;28;20186;-85
2021/05/16 00:47:27;;;;;;;5.43;4.60;;;14.20;98.20;;;;;;5052724;28;20254;-85
2021/05/16 00:49:55;;;;;;;6.50;4.60;;;14.10;98.30;;;;;;5034462;28;20433;-85
2021/05/16 00:52:23;;;;;;;6.37;4.80;;;14.10;98.50;;;;;;5052609;28;20467;-85
2021/05/16 00:54:49;;;;;;;5.40;4.90;;;14.00;98.50;;;;;;5052036;28;20940;-85
2021/05/16 00:57:15;;;;;;;8.50;5.33;;;14.00;98.60;;;;;;5052586;28;20406;-85
2021/05/16 00:59:41;;;;;;;7.20;4.60;;;14.00;98.80;;;;;;5052044;28;20738;-85
2021/05/16 01:02:07;;;;;;;9.30;5.37;;;13.80;98.30;;;;;;5052685;28;20447;-85
2021/05/16 01:04:33;;;;;;;7.77;4.80;;;13.80;98.50;;;;;;5034599;28;20171;-87
2021/05/16 01:06:58;;;;;;;5.37;4.83;;;13.80;98.40;;;;;;5052652;28;20219;-86
2021/05/16 01:09:25;;;;;;;8.67;5.07;;;13.80;98.70;;;;;;5034711;28;20421;-85
2021/05/16 01:11:55;;;;;;;5.73;4.30;;;13.70;98.40;;;;;;5034859;28;20187;-85
2021/05/16 01:14:29;;;;;;;11.30;4.63;;;13.70;98.40;;;;;;5052292;28;20433;-86
2021/05/16 01:16:55;;;;;;;8.53;4.53;;;13.60;98.50;;;;;;5051771;28;20473;-85
2021/05/16 01:19:21;;;;;;;6.83;4.63;;;13.60;98.50;;;;;;5052132;28;20466;-85
2021/05/16 01:21:47;;;;;;;7.53;4.20;;;13.50;98.70;;;;;;5051805;28;20170;-86
2021/05/16 01:24:17;;;;;;;9.17;5.20;;;13.50;98.80;;;;;;5052276;28;20179;-86
2021/05/16 01:26:47;;;;;;;6.17;5.03;;;13.40;98.70;;;;;;5051651;28;20200;-87
2021/05/16 01:29:14;;;;;;;7.53;4.60;;;13.30;98.90;;;;;;5034221;28;20981;-86
2021/05/16 01:31:40;;;;;;;7.57;4.93;;;13.30;99.10;;;;;;5051626;28;20904;-85
2021/05/16 01:34:06;;;;;;;6.90;5.50;;;13.40;99.70;;;;;;5052252;28;20412;-85
2021/05/16 01:36:33;;;;;;;9.47;4.80;;;13.30;99.20;;;;;;5052349;28;20962;-85
2021/05/16 01:39:00;;;;;;;7.43;5.10;;;13.40;99.40;;;;;;5033921;28;20421;-84
2021/05/16 01:41:26;;;;;;;5.73;4.60;;;13.40;99.30;;;;;;5052125;28;20411;-85
2021/05/16 01:43:54;;;;;;;9.27;5.10;;;13.40;99.30;;;;;;5051720;28;20492;-85
2021/05/16 01:46:20;;;;;;;8.83;5.23;;;13.50;99.50;;;;;;5052018;28;20443;-85
2021/05/16 01:48:45;;;;;;;6.17;4.87;;;13.60;99.20;;;;;;5051476;28;20420;-86
2021/05/16 01:51:12;;;;;;;7.80;4.60;;;13.60;98.70;;;;;;5051726;28;20226;-86
2021/05/16 01:53:40;;;;;;;8.10;5.00;;;13.70;99.10;;;;;;5053404;28;20177;-86
2021/05/16 01:56:07;;;;;;;5.07;4.30;;;13.70;98.80;;;;;;5055784;28;20410;-85
2021/05/16 01:58:35;;;;;;;5.47;4.23;;;13.80;98.60;;;;;;5055840;28;20807;-86
2021/05/16 02:01:04;;;;;;;6.20;4.13;;;13.80;98.40;;;;;;5055817;28;20443;-86
2021/05/16 02:03:31;;;;;;;7.47;4.27;;;13.80;98.60;;;;;;5037926;28;20455;-85
2021/05/16 02:05:58;;;;;;;8.60;4.70;;;13.70;98.10;;;;;;5054781;28;20966;-86
2021/05/16 02:08:26;;;;;;;6.80;4.53;;;13.70;98.20;;;;;;5055558;28;20555;-86
2021/05/16 02:10:52;;;;;;;7.57;4.27;;;13.80;98.50;;;;;;5054956;28;20745;-86
2021/05/16 02:13:17;;;;;;;5.13;4.13;;;13.80;98.20;;;;;;5055489;28;20408;-86
2021/05/16 02:15:43;;;;;;;6.07;3.77;;;13.90;98.80;;;;;;5054480;28;20182;-86
2021/05/16 02:18:14;;;;;;;4.17;3.60;;;13.80;97.80;;;;;;5055336;28;20194;-85
2021/05/16 02:20:40;;;;;;;8.53;4.00;;;13.70;97.50;;;;;;5054828;28;20162;-85
2021/05/16 02:23:06;;;;;;;5.40;3.50;;;13.60;97.50;;;;;;5055116;28;20418;-85
2021/05/16 02:25:32;;;;;;;3.53;3.23;;;13.50;97.80;;;;;;5054508;28;20624;-85
2021/05/16 02:27:57;;;;;;;5.97;5.10;;;13.60;98.30;;;;;;5074621;28;20542;-86
2021/05/16 02:30:23;;;;;;;5.27;4.10;;;13.60;98.20;;;;;;5075258;28;20177;-86
2021/05/16 02:32:50;;;;;;;10.00;4.33;;;13.60;97.70;;;;;;5073410;28;20182;-87
2021/05/16 02:35:16;;;;;;;5.70;3.90;;;13.40;97.70;;;;;;5073677;28;20421;-86
2021/05/16 02:37:42;;;;;;;3.60;3.17;;;13.40;98.40;;;;;;5074149;28;20416;-86
2021/05/16 02:40:09;;;;;;;4.10;3.57;;;13.40;98.10;;;;;;5075085;28;20410;-86
2021/05/16 02:42:35;;;;;;;6.47;3.50;;;13.50;97.80;;;;;;5075369;28;20415;-85
2021/05/16 02:45:01;;;;;;;8.20;3.90;;;13.50;97.90;;;;;;5074542;28;20770;-86
2021/05/16 02:47:26;;;;;;;3.80;3.50;;;13.50;97.40;;;;;;5074846;28;20448;-86
2021/05/16 02:49:52;;;;;;;4.20;3.77;;;13.50;97.70;;;;;;5074283;28;20235;-85
2021/05/16 02:52:18;;;;;;;7.13;4.17;;;13.50;97.50;;;;;;5074879;28;20629;-85
2021/05/16 02:54:44;;;;;;;5.03;4.00;;;13.60;97.40;;;;;;5074143;28;20255;-85
2021/05/16 02:57:10;;;;;;;8.87;3.80;;;13.50;97.30;;;;;;5074705;28;20188;-86
2021/05/16 02:59:36;;;;;;;5.67;3.90;;;13.50;97.40;;;;;;5074710;28;20180;-85
2021/05/16 03:02:02;;;;;;;5.33;3.90;;;13.50;97.40;;;;;;5072833;28;20405;-85
2021/05/16 03:04:27;;;;;;;5.00;4.07;;;13.50;97.80;;;;;;5073292;28;20174;-85
2021/05/16 03:06:53;;;;;;;6.93;4.27;;;13.60;97.80;;;;;;5073891;28;20458;-85
2021/05/16 03:09:19;;;;;;;8.40;3.93;;;13.50;97.20;;;;;;5073314;28;20186;-85
2021/05/16 03:11:45;;;;;;;6.77;3.60;;;13.60;96.80;;;;;;5072752;28;20231;-85
2021/05/16 03:14:11;;;;;;;7.17;4.30;;;13.50;97.00;;;;;;5074273;28;20186;-85
2021/05/16 03:16:36;;;;;;;17.00;4.90;;;13.40;96.90;;;;;;5074467;28;20181;-85
2021/05/16 03:19:03;;;;;;;4.70;3.60;;;13.30;97.20;;;;;;5072530;28;20964;-85
2021/05/16 03:21:28;;;;;;;5.90;4.10;;;13.20;97.10;;;;;;5073072;28;20170;-86
2021/05/16 03:23:55;;;;;;;8.00;4.27;;;13.30;98.10;;;;;;5073566;28;20391;-86
2021/05/16 03:26:21;;;;;;;7.77;4.10;;;13.30;97.80;;;;;;5072770;28;20231;-86
2021/05/16 03:28:47;;;;;;;9.30;4.47;;;13.30;97.90;;;;;;5073250;28;20422;-86
2021/05/16 03:31:13;;;;;;;6.70;3.90;;;13.30;97.90;;;;;;5074094;28;20763;-86
2021/05/16 03:33:39;;;;;;;5.60;3.87;;;13.30;97.60;;;;;;5072545;28;20215;-85
2021/05/16 03:36:05;;;;;;;5.17;3.93;;;13.40;97.90;;;;;;5073336;28;20952;-86
2021/05/16 03:38:31;;;;;;;6.63;4.87;;;13.40;97.60;;;;;;5073650;28;20182;-86
2021/05/16 03:40:56;;;;;;;6.17;4.30;;;13.30;98.10;;;;;;5072101;28;20465;-86
2021/05/16 03:43:23;;;;;;;6.93;3.97;;;13.30;98.10;;;;;;5072574;28;20415;-86
2021/05/16 03:45:49;;;;;;;7.63;4.60;;;13.30;98.00;;;;;;5072742;28;20181;-85
2021/05/16 03:48:15;;;;;;;6.37;4.10;;;13.30;97.60;;;;;;5073711;28;20520;-85
2021/05/16 03:50:41;;;;;;;8.07;4.10;;;13.20;97.80;;;;;;5072505;28;20414;-85
2021/05/16 03:53:07;;;;;;;6.20;4.20;;;13.30;98.10;;;;;;5073070;28;20499;-86
2021/05/16 03:55:34;;;;;;;5.27;3.80;;;13.30;98.10;;;;;;5073652;28;20492;-85
2021/05/16 03:58:00;;;;;;;5.80;4.10;;;13.30;97.70;;;;;;5072978;28;20399;-84
2021/05/16 04:00:26;;;;;;;8.13;4.03;;;13.20;97.70;;;;;;5073094;28;20904;-84
2021/05/16 04:02:52;;;;;;;6.43;4.10;;;13.20;98.20;;;;;;5072245;28;20927;-86
2021/05/16 04:05:18;;;;;;;7.73;3.47;;;13.10;98.40;;;;;;5073559;28;20407;-86
2021/05/16 04:07:44;;;;;;;4.70;3.83;;;12.90;98.20;;;;;;5072180;28;20216;-87
2021/05/16 04:10:10;;;;;;;9.03;3.70;;;12.80;98.80;;;;;;5073274;28;20182;-86
2021/05/16 04:12:37;;;;;;;5.27;3.80;;;12.90;99.10;;;;;;5072163;28;20462;-87
2021/05/16 04:15:05;;;;;;;5.00;4.20;;;12.90;98.90;;;;;;5071485;28;20411;-86
2021/05/16 04:17:31;;;;;;;7.10;3.70;;;12.90;99.00;;;;;;5071785;28;20426;-86
2021/05/16 04:19:56;;;;;;;6.90;3.80;;;12.90;99.10;;;;;;5072562;28;20416;-86
2021/05/16 04:22:22;;;;;;;4.27;3.73;;;12.90;99.10;;;;;;5073143;28;20265;-86
2021/05/16 04:24:48;;;;;;;6.10;4.03;;;12.90;98.90;;;;;;5068035;28;20698;-86
2021/05/16 04:27:14;;;;;;;5.07;4.00;;;12.90;98.80;;;;;;5053140;28;20263;-85
2021/05/16 04:29:39;;;;;;;4.30;3.90;;;12.80;98.90;;;;;;5052998;28;20182;-86
2021/05/16 04:32:05;;;;;;;4.80;4.40;;;12.80;99.30;;;;;;5034642;28;20173;-85
2021/05/16 04:34:31;;;;;;;4.33;3.73;;;12.80;99.00;;;;;;5052618;28;20631;-85
2021/05/16 04:36:57;;;;;;;9.53;4.30;;;12.80;99.40;;;;;;5034620;28;20414;-86
2021/05/16 04:39:22;;;;;;;6.20;4.67;;;12.90;99.30;;;;;;5052557;28;20173;-86
2021/05/16 04:41:48;;;;;;;6.50;4.13;;;12.90;99.40;;;;;;5052196;28;20182;-86
2021/05/16 04:44:14;;;;;;;4.73;4.17;;;13.00;99.00;;;;;;5052606;28;20172;-85
2021/05/16 04:46:40;;;;;;;5.50;4.97;;;13.00;99.50;;;;;;5052930;28;20216;-85
2021/05/16 04:49:06;;;;;;;4.30;3.90;;;13.00;99.10;;;;;;5052057;28;20342;-84
2021/05/16 04:51:32;;;;;;;4.97;4.40;;;13.00;98.80;;;;;;5052622;28;20183;-84
2021/05/16 04:53:58;;;;;;;10.17;6.87;;;13.00;99.40;;;;;;5052025;28;20416;-84
2021/05/16 04:56:26;;;;;;;6.93;4.67;;;13.00;99.10;;;;;;5052549;28;20419;-85
2021/05/16 04:58:52;;;;;;;10.73;4.00;;;13.00;99.30;;;;;;5052239;28;20427;-85
2021/05/16 05:01:18;;;;;;;8.90;3.90;;;13.00;99.10;;;;;;5052628;28;20917;-85
2021/05/16 05:03:43;;;;;;;6.00;4.10;;;13.10;99.00;;;;;;5052476;28;20181;-85
2021/05/16 05:06:09;;;;;;;4.10;3.60;;;13.20;99.20;;;;;;5051623;28;20610;-85
2021/05/16 05:08:37;;;;;;;6.50;3.47;;;13.20;99.00;;;;;;5052277;28;20197;-85
2021/05/16 05:11:03;;;;;;;4.50;3.60;;;13.20;98.50;;;;;;5051775;28;20181;-85
2021/05/16 05:13:29;;;;;;;7.60;4.03;;;13.30;98.60;;;;;;5052039;28;20414;-85
2021/05/16 05:15:54;;;;;;;4.00;3.67;;;13.30;98.60;;;;;;5034079;28;20178;-84
2021/05/16 05:18:20;;;;;;;4.77;4.23;;;13.30;98.40;;;;;;5034806;28;20185;-84
2021/05/16 05:20:46;;;;;;;4.43;4.03;;;13.20;98.30;;;;;;5052626;28;20170;-86
2021/05/16 05:23:12;;;;;;;8.23;4.23;;;13.10;98.50;;;;;;5034679;28;20178;-85
2021/05/16 05:25:38;;;;;;;5.73;3.80;;;13.10;98.50;;;;;;5052958;28;20577;-85
2021/05/16 05:28:04;;;;;;;4.17;3.77;;;13.10;98.80;;;;;;5035094;28;20487;-84
2021/05/16 05:30:30;;;;;;;9.27;3.90;;;13.10;99.00;;;;;;5038594;28;20427;-85
2021/05/16 05:32:56;;;;;;;3.77;3.40;;;13.10;99.00;;;;;;5038211;28;20215;-85
2021/05/16 05:35:22;;;;;;;4.10;3.60;;;13.20;98.60;;;;;;5056277;28;20400;-85
2021/05/16 05:37:48;;;;;;;4.13;3.67;;;13.20;98.60;;;;;;5038345;28;20422;-85
2021/05/16 05:40:14;;;;;;;7.80;3.80;;;13.30;98.70;;;;;;5037847;28;20406;-85
2021/05/16 05:42:40;;;;;;;11.83;4.37;;;13.40;98.60;;;;;;5056173;28;20178;-85
2021/05/16 05:45:08;;;;;;;7.03;4.53;;;13.50;99.00;;;;;;5055505;28;20431;-85
2021/05/16 05:47:34;;;;;;;5.50;3.93;;;13.50;98.70;;;;;;5055901;28;20453;-86
2021/05/16 05:50:00;;;;;;;4.30;3.90;;;13.50;98.10;;;;;;5055391;28;20448;-86
2021/05/16 05:52:26;;;;;;;4.20;3.80;;;13.70;98.90;;;;;;5056343;28;20435;-84
2021/05/16 05:54:51;;;;;;;5.00;3.83;;;13.70;98.60;;;;;;5037756;28;20186;-85
2021/05/16 05:57:17;;;;;;;7.33;4.40;;;13.90;98.00;;;;;;5055873;28;20638;-86
2021/05/16 05:59:43;;;;;;;5.17;4.10;;;13.90;97.70;;;;;;5057119;28;20267;-85
2021/05/16 06:02:09;;;;;;;4.33;3.93;;;14.00;97.80;;;;;;5055324;28;20815;-85
2021/05/16 06:04:35;;;;;;;7.10;4.10;;;14.00;97.30;;;;;;5037949;28;20187;-84
2021/05/16 06:07:01;;;;;;;9.13;6.47;;;14.00;97.50;;;;;;5054964;28;20208;-85
2021/05/16 06:09:27;;;;;;;10.57;5.30;;;14.10;98.40;;;;;;5055597;28;20189;-84
2021/05/16 06:11:53;;;;;;;7.63;4.03;;;14.20;98.10;;;;;;5054964;28;20417;-84
2021/05/16 06:14:19;;;;;;;8.50;3.80;;;14.30;97.40;;;;;;5037608;28;20426;-85
2021/05/16 06:16:45;;;;;;;5.90;3.80;;;14.40;97.30;;;;;;5037875;28;20415;-84
2021/05/16 06:19:10;;;;;;;8.07;4.03;;;14.60;97.40;;;;;;5055096;28;20226;-84
2021/05/16 06:21:36;;;;;;;8.43;4.53;;;14.70;96.90;;;;;;5055398;28;20173;-84
2021/05/16 06:26:32;;;;;;;5.30;3.23;;;14.80;96.10;;;;;;5055352;28;20224;-85
2021/05/16 06:28:59;;;;;;;4.97;3.60;;;14.90;96.60;;;;;;5054746;28;20600;-85
2021/05/16 06:31:25;;;;;;;6.60;3.70;;;14.90;95.10;;;;;;5037497;28;20442;-84
2021/05/16 06:33:51;;;;;;;9.70;3.53;;;14.90;94.70;;;;;;5054853;28;20517;-84
2021/05/16 06:36:17;;;;;;;6.13;4.20;;;14.90;95.10;;;;;;5054566;28;20181;-84
2021/05/16 06:38:43;;;;;;;4.37;3.40;;;14.90;94.60;;;;;;5054722;28;20439;-84
2021/05/16 06:41:10;;;;;;;4.63;4.00;;;14.90;95.00;;;;;;5054557;28;20412;-84
2021/05/16 06:43:35;;;;;;;8.37;6.70;;;14.80;95.30;;;;;;5054871;28;20738;-86
2021/05/16 06:46:01;;;;;;;8.70;5.50;;;14.80;94.60;;;;;;5036673;28;20420;-85
2021/05/16 06:48:27;;;;;;;4.57;4.17;;;14.90;95.50;;;;;;5054891;28;20212;-84
2021/05/16 06:50:53;;;;;;;5.73;4.37;;;15.00;95.50;;;;;;5054816;28;20258;-83
2021/05/16 06:53:19;;;;;;;4.40;3.57;;;15.20;98.10;;;;;;5037090;28;20181;-76
2021/05/16 06:55:47;;;;;;;6.20;3.87;;;15.40;97.30;;;;;;5054960;28;20415;-76
2021/05/16 06:58:13;;;;;;;4.27;3.87;;;15.70;96.40;;;;;;5054059;28;20421;-76
2021/05/16 07:00:39;;;;;;;8.57;6.70;;;16.00;94.90;;;;;;5054318;28;20412;-76
2021/05/16 07:03:06;;;;;;;6.17;5.10;;;16.20;94.30;;;;;;5053996;28;20891;-76
2021/05/16 07:05:32;;;;;;;8.70;5.33;;;16.30;93.20;;;;;;5053117;28;20168;-77
2021/05/16 07:07:58;;;;;;;5.47;4.53;;;16.30;92.10;;;;;;5052927;28;20465;-77
2021/05/16 07:10:24;;;;;;;10.07;5.70;;;16.20;92.70;;;;;;5036868;28;20918;-77
2021/05/16 07:12:50;;;;;;;8.27;5.80;;;16.20;92.70;;;;;;5054419;28;20275;-76
2021/05/16 07:15:16;;;;;;;5.60;5.10;;;16.20;92.80;;;;;;5053462;28;20581;-76
2021/05/16 07:17:42;;;;;;;6.40;5.83;;;16.10;92.10;;;;;;5054390;28;20418;-76
2021/05/16 07:20:09;;;;;;;7.40;6.70;;;16.10;92.00;;;;;;5034970;28;20429;-78
2021/05/16 07:22:34;;;;;;;7.20;5.77;;;15.90;92.10;;;;;;5054275;28;20178;-76
2021/05/16 07:25:00;;;;;;;7.97;6.07;;;15.60;92.10;;;;;;5053391;28;20483;-76
2021/05/16 07:27:26;;;;;;;6.50;5.90;;;15.30;93.40;;;;;;5054098;28;20263;-76
2021/05/16 07:29:53;;;;;;;9.10;5.40;;;15.10;93.50;;;;;;5053886;28;20173;-77
2021/05/16 07:32:19;;;;;;;11.53;6.93;;;14.90;94.00;;;;;;5053144;28;20428;-76
2021/05/16 07:34:44;;;;;;;12.10;8.37;;;14.90;95.00;;;;;;5054087;28;20770;-76
2021/05/16 07:37:10;;;;;;;20.80;15.40;;;14.90;95.80;;;;;;5035574;28;20274;-75
2021/05/16 07:39:36;;;;;;;12.37;9.20;;;14.80;95.90;;;;;;5053938;28;20418;-76
2021/05/16 07:42:02;;;;;;;9.50;7.30;;;15.00;96.50;;;;;;5052940;28;20253;-77
2021/05/16 07:44:28;;;;;;;8.87;5.30;;;15.10;96.30;;;;;;5053808;28;20227;-76
2021/05/16 07:46:53;;;;;;;15.33;8.13;;;15.10;96.50;;;;;;5053772;28;20488;-76
2021/05/16 07:49:20;;;;;;;7.70;5.93;;;15.10;96.20;;;;;;5053396;28;20232;-76
2021/05/16 07:51:47;;;;;;;3.50;3.20;;;15.00;95.90;;;;;;5053009;28;20264;-76
2021/05/16 07:54:13;;;;;;;9.20;6.17;;;14.80;95.80;;;;;;5052695;28;20457;-76
2021/05/16 07:56:39;;;;;;;10.20;7.10;;;14.80;96.30;;;;;;5053565;28;20835;-75
2021/05/16 07:59:04;;;;;;;10.17;7.00;;;14.90;96.20;;;;;;5052915;28;20173;-76
2021/05/16 08:01:30;;;;;;;7.53;4.27;;;15.10;96.20;;;;;;5053563;28;20415;-77
2021/05/16 08:03:56;;;;;;;7.40;4.07;;;15.40;95.80;;;;;;5053434;28;20261;-76
2021/05/16 08:06:21;;;;;;;8.50;4.23;;;15.40;95.40;;;;;;5052821;28;20236;-75
2021/05/16 08:08:47;;;;;;;5.17;4.37;;;15.30;95.20;;;;;;5053126;28;20311;-76
2021/05/16 08:11:13;;;;;;;9.07;4.47;;;15.20;94.50;;;;;;5052435;28;20626;-76
2021/05/16 08:13:39;;;;;;;3.47;3.13;;;15.20;95.30;;;;;;5035591;28;20533;-76
2021/05/16 08:16:05;;;;;;;4.00;2.90;;;15.20;94.70;;;;;;5052658;28;20224;-75
2021/05/16 08:18:30;;;;;;;9.10;3.13;;;15.10;95.20;;;;;;5051474;28;20332;-76
2021/05/16 08:20:56;;;;;;;4.10;3.00;;;14.90;94.30;;;;;;5034580;28;20925;-76
2021/05/16 08:23:22;;;;;;;7.80;3.00;;;14.90;95.40;;;;;;5052550;28;20187;-74
2021/05/16 08:25:48;;;;;;;19.53;13.10;;;14.80;95.00;;;;;;5053058;28;20710;-74
2021/05/16 08:28:15;;;;;;;12.87;8.07;;;14.80;96.30;;;;;;5052421;28;20201;-74
2021/05/16 08:30:41;;;;;;;13.90;10.30;;;14.90;96.50;;;;;;5053031;28;20412;-74
2021/05/16 08:33:07;;;;;;;56.17;39.03;;;15.20;96.10;;;;;;5052436;28;20423;-74
2021/05/16 08:35:34;;;;;;;217.77;149.70;;;15.20;95.80;;;;;;5052888;28;20405;-74
2021/05/16 08:38:00;;;;;;;14.70;10.10;;;15.60;95.60;;;;;;5052329;28;20734;-76
2021/05/16 08:40:25;;;;;;;15.73;10.67;;;15.70;95.10;;;;;;5052771;28;20413;-74
2021/05/16 08:42:52;;;;;;;14.00;6.47;;;15.80;95.20;;;;;;5052816;28;20768;-74
2021/05/16 08:45:18;;;;;;;7.03;4.63;;;15.70;95.40;;;;;;5051834;28;20175;-74
2021/05/16 08:47:45;;;;;;;4.20;3.57;;;15.70;95.40;;;;;;5052617;28;20881;-74
2021/05/16 08:50:14;;;;;;;15.30;11.47;;;15.50;95.30;;;;;;5052113;28;20421;-74
2021/05/16 08:52:40;;;;;;;7.10;4.60;;;15.30;95.60;;;;;;5052623;28;20406;-74
2021/05/16 08:55:07;;;;;;;8.30;4.60;;;15.30;96.50;;;;;;5034015;28;20438;-75
2021/05/16 08:57:33;;;;;;;8.67;6.33;;;15.30;96.20;;;;;;5052618;28;20181;-74
2021/05/16 09:00:14;;;;;;;6.27;4.40;;;15.20;95.70;;;;;;5034767;28;20403;-74
2021/05/16 09:03:00;;;;;;;12.30;8.27;;;15.30;96.90;;;;;;5052520;28;20181;-74
2021/05/16 09:05:28;;;;;;;6.90;4.30;;;15.40;97.80;;;;;;5052442;28;20410;-74
2021/05/16 09:08:01;;;;;;;8.70;4.00;;;15.60;97.30;;;;;;5052424;28;20476;-74
2021/05/16 09:10:27;;;;;;;11.43;8.17;;;15.80;95.90;;;;;;5052684;28;20828;-74
2021/05/16 09:13:14;;;;;;;8.47;7.10;;;16.00;95.60;;;;;;5052444;28;20415;-74
2021/05/16 09:15:40;;;;;;;3.60;3.20;;;16.40;95.00;;;;;;5052658;28;20419;-74
2021/05/16 09:18:06;;;;;;;6.37;4.07;;;16.60;93.40;;;;;;5051780;28;20408;-75
2021/05/16 09:20:31;;;;;;;6.40;4.37;;;16.70;93.30;;;;;;5052334;28;20463;-74
2021/05/16 09:22:57;;;;;;;6.17;5.57;;;16.60;92.70;;;;;;5052390;28;20215;-74
2021/05/16 09:25:31;;;;;;;5.40;3.70;;;16.70;93.90;;;;;;5048845;28;20910;-75
2021/05/16 09:28:19;;;;;;;6.90;3.97;;;16.60;92.40;;;;;;5072594;28;20652;-76
2021/05/16 09:30:45;;;;;;;5.77;4.77;;;16.30;94.40;;;;;;5071138;28;20426;-75
2021/05/16 09:33:13;;;;;;;5.97;3.60;;;16.30;94.30;;;;;;5071665;28;20414;-75
2021/05/16 09:35:50;;;;;;;5.50;4.73;;;16.30;94.80;;;;;;5072283;28;20183;-75
2021/05/16 09:38:21;;;;;;;4.07;3.67;;;16.10;92.90;;;;;;5071437;28;20426;-75
2021/05/16 09:40:52;;;;;;;3.70;3.40;;;16.00;93.70;;;;;;5072130;28;20394;-75
2021/05/16 09:43:25;;;;;;;4.13;3.60;;;16.00;94.20;;;;;;5072079;28;20398;-75
2021/05/16 09:46:07;;;;;;;5.23;3.13;;;16.20;93.90;;;;;;5072152;28;20430;-75
2021/05/16 09:48:44;;;;;;;3.17;2.93;;;15.80;92.90;;;;;;5072274;28;20446;-74
2021/05/16 09:51:18;;;;;;;4.73;3.60;;;15.80;93.40;;;;;;5071557;28;20391;-74
2021/05/16 09:54:03;;;;;;;4.30;3.90;;;15.90;94.30;;;;;;5072212;28;20405;-75
2021/05/16 09:56:32;;;;;;;4.03;3.60;;;15.90;94.50;;;;;;5072359;28;20930;-75
2021/05/16 09:59:00;;;;;;;334.13;253.20;;;16.00;94.50;;;;;;5070555;28;20978;-76
2021/05/16 10:01:27;;;;;;;60.50;48.00;;;16.20;93.30;;;;;;5071465;28;20411;-77
2021/05/16 10:03:58;;;;;;;12.67;11.37;;;16.40;93.00;;;;;;5071994;28;20440;-75
2021/05/16 10:06:24;;;;;;;3.93;3.70;;;16.70;91.80;;;;;;5071150;28;20415;-76
2021/05/16 10:08:50;;;;;;;7.37;5.70;;;16.50;90.90;;;;;;5071887;28;20917;-75
2021/05/16 10:11:19;;;;;;;9.47;8.00;;;16.80;93.00;;;;;;5071383;28;20450;-75
2021/05/16 10:14:05;;;;;;;3.87;3.63;;;17.20;92.20;;;;;;5072500;28;20418;-75
2021/05/16 10:16:52;;;;;;;12.80;10.13;;;17.60;90.20;;;;;;5074927;28;20423;-75
2021/05/16 10:19:20;;;;;;;4.37;3.53;;;17.90;90.40;;;;;;5074927;28;20445;-75
2021/05/16 10:22:09;;;;;;;4.10;3.80;;;18.20;88.20;;;;;;5075446;28;20494;-76
2021/05/16 10:24:38;;;;;;;3.00;2.90;;;18.10;83.20;;;;;;5072840;28;20396;-76
2021/05/16 10:27:16;;;;;;;5.97;5.47;;;18.00;83.70;;;;;;5055307;28;20439;-77
2021/05/16 10:29:52;;;;;;;4.87;4.30;;;18.00;86.40;;;;;;5054878;28;20431;-77
2021/05/16 10:32:22;;;;;;;4.23;3.60;;;18.20;85.30;;;;;;5054666;28;20408;-77
2021/05/16 10:35:02;;;;;;;4.50;4.10;;;18.50;85.70;;;;;;5055216;28;20408;-77
2021/05/16 10:37:46;;;;;;;3.90;3.60;;;18.70;86.90;;;;;;5054821;28;20409;-77
2021/05/16 10:40:12;;;;;;;4.27;3.97;;;18.90;81.70;;;;;;5054534;28;20412;-77
2021/05/16 10:42:43;;;;;;;4.37;4.07;;;18.90;78.00;;;;;;5055044;28;20431;-75
2021/05/16 10:45:16;;;;;;;6.37;4.27;;;19.00;81.70;;;;;;5036641;28;20174;-76
2021/05/16 10:47:42;;;;;;;4.40;4.00;;;18.90;81.30;;;;;;5055001;28;20478;-75
2021/05/16 10:50:13;;;;;;;4.83;4.43;;;18.40;87.60;;;;;;5054308;28;20419;-76
2021/05/16 10:52:39;;;;;;;4.20;3.80;;;18.10;86.90;;;;;;5055078;28;20403;-75
2021/05/16 10:55:17;;;;;;;100.60;67.37;;;18.00;88.10;;;;;;5054762;28;20494;-76
2021/05/16 10:57:43;;;;;;;57.33;41.70;;;17.90;90.20;;;;;;5054980;28;20169;-75
2021/05/16 11:00:22;;;;;;;28.43;22.83;;;17.80;91.10;;;;;;5053727;28;20404;-76
2021/05/16 11:03:00;;;;;;;7.63;7.03;;;17.80;91.60;;;;;;5054963;28;20466;-74
2021/05/16 11:08:32;;;;;;;11.87;10.77;;;18.40;92.70;;;;;;5054506;28;20455;-76
2021/05/16 11:11:00;;;;;;;5.93;5.43;;;18.90;91.40;;;;;;4993077;28;20417;-75
2021/05/16 11:13:33;;;;;;;4.70;4.37;;;19.10;92.50;;;;;;5035987;28;20419;-75
2021/05/16 11:16:04;;;;;;;4.37;4.07;;;19.30;91.50;;;;;;5054357;28;20427;-76
2021/05/16 11:18:30;;;;;;;4.20;3.90;;;18.50;89.60;;;;;;5053711;28;20444;-77
2021/05/16 11:20:58;;;;;;;5.17;4.60;;;18.40;89.60;;;;;;5054721;28;20769;-76
2021/05/16 11:23:25;;;;;;;5.00;4.70;;;18.40;90.40;;;;;;5053410;28;20444;-76
2021/05/16 11:25:58;;;;;;;3.70;3.50;;;18.60;91.10;;;;;;5053088;28;20464;-76
2021/05/16 11:28:28;;;;;;;3.40;3.10;;;18.90;91.60;;;;;;5053298;28;20844;-76
2021/05/16 11:30:58;;;;;;;9.57;8.60;;;18.90;91.30;;;;;;5054217;28;20401;-75
2021/05/16 11:33:34;;;;;;;113.70;88.03;;;19.10;85.90;;;;;;5053262;28;20507;-76
2021/05/16 11:36:13;;;;;;;5.43;5.10;;;19.10;89.30;;;;;;5054147;28;20450;-77
2021/05/16 11:38:42;;;;;;;12.33;11.17;;;19.20;87.20;;;;;;5054240;28;20761;-77
2021/05/16 11:41:23;;;;;;;10.13;9.17;;;19.50;88.50;;;;;;5053951;28;20420;-75
2021/05/16 11:43:48;;;;;;;7.83;6.50;;;19.60;85.00;;;;;;5053962;28;20415;-75
2021/05/16 11:46:14;;;;;;;7.23;5.10;;;19.80;83.20;;;;;;5053202;28;20412;-77
2021/05/16 11:48:42;;;;;;;8.57;7.77;;;19.80;81.80;;;;;;5003115;28;20210;-76
2021/05/16 11:51:16;;;;;;;6.60;6.00;;;19.70;83.40;;;;;;5053787;28;20417;-75
2021/05/16 11:53:44;;;;;;;4.80;4.37;;;19.70;81.20;;;;;;5054052;28;20396;-77
2021/05/16 11:56:14;;;;;;;3.50;3.23;;;19.90;84.70;;;;;;5053780;28;20469;-75
2021/05/16 11:58:56;;;;;;;6.03;5.43;;;20.00;80.20;;;;;;5036220;28;20404;-75
2021/05/16 12:01:24;;;;;;;8.47;7.57;;;20.10;83.00;;;;;;5052911;28;20454;-75
2021/05/16 12:04:00;;;;;;;9.87;8.97;;;20.20;82.20;;;;;;5035727;28;20419;-75
2021/05/16 12:06:30;;;;;;;6.20;5.73;;;20.20;80.60;;;;;;5052477;28;20864;-77
2021/05/16 12:09:00;;;;;;;3.50;3.20;;;20.20;72.20;;;;;;5052955;28;20485;-74
2021/05/16 12:11:25;;;;;;;3.43;3.20;;;20.30;75.80;;;;;;5052751;28;20440;-75
2021/05/16 12:13:51;;;;;;;7.20;6.47;;;20.40;75.10;;;;;;5053202;28;20938;-75
2021/05/16 12:16:23;;;;;;;5.13;4.50;;;20.40;75.10;;;;;;5052563;28;20170;-75
2021/05/16 12:18:53;;;;;;;3.57;3.27;;;20.50;73.90;;;;;;5053645;28;20189;-75
2021/05/16 12:21:20;;;;;;;5.47;4.90;;;20.60;72.50;;;;;;5052712;28;20454;-76
2021/05/16 12:24:01;;;;;;;6.30;3.37;;;20.70;74.90;;;;;;5053154;28;20404;-76
2021/05/16 12:26:30;;;;;;;4.90;3.73;;;20.90;71.40;;;;;;5052217;28;20481;-75
2021/05/16 12:28:57;;;;;;;3.33;3.03;;;20.90;72.80;;;;;;5035219;28;20528;-77
2021/05/16 12:31:24;;;;;;;3.10;2.77;;;20.90;70.40;;;;;;5034465;28;21022;-76
2021/05/16 12:33:52;;;;;;;3.80;3.50;;;20.90;73.10;;;;;;5052723;28;20503;-75
2021/05/16 12:36:18;;;;;;;3.83;3.53;;;20.80;68.00;;;;;;5052168;28;20458;-76
2021/05/16 12:38:56;;;;;;;4.20;3.90;;;20.60;66.70;;;;;;5052771;28;20412;-77
2021/05/16 12:41:25;;;;;;;4.50;3.60;;;20.40;67.40;;;;;;5052334;28;20180;-76
2021/05/16 12:44:24;;;;;;;4.03;3.77;;;20.40;69.70;;;;;;5052775;28;20404;-77
2021/05/16 12:46:51;;;;;;;33.37;27.37;;;20.30;68.50;;;;;;4998697;28;20435;-76
2021/05/16 12:49:25;;;;;;;90.17;79.60;;;20.20;68.80;;;;;;5052147;28;20895;-77
2021/05/16 12:51:59;;;;;;;5.90;5.40;;;20.10;66.70;;;;;;5034990;28;20909;-76
2021/05/16 12:54:30;;;;;;;11.57;10.37;;;19.90;65.80;;;;;;5052135;28;20458;-76